Latest Weather Observations for Georgetown Airport

IDQ60801

Issued at 8:32 pm EST Thursday 11 February 2016 (issued every 30 minutes, with the page automatically refreshed every 10 minutes)

About weather observations | Map of weather stations | Latest weather observations for QLD | Other Formats
Station Details ID: 030124 Name: GEORGETOWN AIRPORT Lat: -18.30 Lon: 143.53 Height: 301.77 m
Data from the previous 72 hours. | See also: Recent months at Georgetown Airport
Date/Time
EST
Temp
°C
App
Temp
°C
Dew
Point
Rel
Hum
%
Delta-T
°C
Wind Press
QNH
hPa
Press
MSL
hPa
Rain
since 9 am
mm
Dir
 
Spd
km/h
Gust
km/h
Spd
kts
Gust
kts
11/08:30pm 28.6 34.0 23.3 73 3.7 CALM 0 2 0 1 1008.7 - 0.2
11/08:00pm 28.6 33.8 22.8 71 4.0 CALM 0 0 0 0 1008.3 - 0.2
11/07:30pm 29.9 34.7 22.1 63 5.3 CALM 0 0 0 0 1007.8 - 0.2
11/07:00pm 30.8 35.6 22.1 59 6.0 CALM 0 0 0 0 1007.4 - 0.2
11/06:30pm 30.8 34.6 21.6 58 6.3 NNW 4 6 2 3 1007.3 - 0.2
11/06:00pm 31.1 34.0 20.7 54 7.0 N 6 9 3 5 1007.1 1005.0 0.2
11/05:30pm 31.8 34.5 20.7 51 7.5 NNW 7 11 4 6 1006.9 - 0.2
11/05:00pm 31.8 34.1 20.7 51 7.5 N 9 13 5 7 1006.6 - 0.2
11/04:30pm 31.6 33.9 21.4 54 6.9 NNE 11 15 6 8 1006.6 - 0.2
11/04:00pm 30.7 32.2 22.0 59 6.0 NNE 17 20 9 11 1006.5 - 0.2
11/03:30pm 30.5 31.2 21.6 59 6.1 ENE 20 26 11 14 1006.8 - 0.2
11/03:00pm 32.8 34.8 21.6 51 7.7 W 13 20 7 11 1006.9 1004.8 0.2
11/02:30pm 31.8 33.6 22.5 58 6.4 W 17 20 9 11 1007.4 - 0.2
11/02:00pm 31.5 34.3 20.4 51 7.5 NE 6 11 3 6 1007.7 - 0.2
11/01:30pm 31.7 34.3 21.2 53 7.1 W 9 15 5 8 1008.2 - 0.2
11/01:00pm 31.1 33.8 21.3 56 6.7 NNE 9 15 5 8 1008.7 - 0.2
11/12:30pm 30.3 33.2 21.1 58 6.2 NE 7 13 4 7 1009.1 - 0.2
11/12:00pm 29.8 33.0 21.2 60 5.8 NNE 6 13 3 7 1009.7 1007.6 0.2
11/11:30am 29.6 32.6 21.3 61 5.6 NNE 7 13 4 7 1010.3 - 0.2
11/11:00am 28.8 31.8 20.8 62 5.4 NNE 6 11 3 6 1010.6 - 0.2
11/10:30am 28.7 31.8 21.5 65 4.9 ENE 7 11 4 6 1010.8 - 0.2
11/10:00am 28.2 31.6 21.7 68 4.4 ENE 6 11 3 6 1011.0 - 0.0
11/09:30am 27.2 30.3 21.5 71 3.8 E 7 13 4 7 1011.1 - 0.0
11/09:00am 27.1 30.3 21.6 72 3.7 E 7 15 4 8 1011.1 1008.9 1.2
11/08:30am 26.2 29.7 22.1 78 2.8 E 7 11 4 6 1011.0 - 1.2
11/08:00am 25.7 28.4 21.4 77 2.9 E 9 15 5 8 1010.6 - 1.2
11/07:30am 25.8 28.9 22.1 80 2.5 E 9 15 5 8 1010.4 - 1.2
11/07:00am 24.4 29.7 23.0 92 1.0 CALM 0 0 0 0 1010.4 - 1.2
11/06:30am 23.6 28.8 22.9 96 0.5 CALM 0 0 0 0 1009.9 - 1.2
11/06:00am 23.5 28.6 22.7 95 0.5 CALM 0 0 0 0 1009.7 1007.6 1.2
11/05:30am 23.7 28.7 22.5 93 0.8 CALM 0 0 0 0 1009.1 - 1.2
11/05:00am 23.7 28.2 22.3 92 0.9 ESE 2 6 1 3 1008.9 - 1.2
11/04:30am 23.7 27.3 22.1 91 1.1 ESE 6 7 3 4 1008.7 - 1.2
11/04:00am 23.6 27.3 22.2 92 0.9 SE 6 9 3 5 1008.4 - 1.2
11/03:30am 23.6 27.2 22.0 91 1.1 ESE 6 9 3 5 1008.4 - 1.2
11/03:00am 23.8 26.9 22.2 91 1.1 E 9 11 5 6 1008.3 1006.2 1.2
11/02:30am 24.1 28.3 22.4 90 1.2 ENE 4 7 2 4 1008.5 - 1.2
11/02:00am 24.3 27.8 22.9 92 1.0 NE 9 13 5 7 1008.6 - 1.2
11/01:34am 24.4 30.0 23.5 95 0.6 CALM 0 6 0 3 1008.8 - 1.2
11/01:30am 24.4 29.9 23.4 94 0.7 CALM 0 6 0 3 1008.8 - 1.2
11/01:00am 24.5 28.3 23.5 94 0.7 NE 9 11 5 6 1008.8 - 1.2
11/12:49am 24.5 28.0 23.5 94 0.7 NE 11 15 6 8 1009.0 - 1.2
11/12:30am 24.5 28.8 23.6 95 0.6 NE 7 11 4 6 1009.3 - 1.2
11/12:00am 24.2 28.4 23.5 96 0.5 E 7 11 4 6 1009.6 1007.5 1.2
 
Date/Time
EST
Temp
°C
App
Temp
°C
Dew
Point
Rel
Hum
%
Delta-T
°C
Wind Press
QNH
hPa
Press
MSL
hPa
Rain
since 9 am
mm
Dir
 
Spd
km/h
Gust
km/h
Spd
kts
Gust
kts
10/11:30pm 24.1 29.1 23.2 95 0.6 ENE 2 7 1 4 1009.6 - 1.2
10/11:00pm 24.0 28.2 23.5 97 0.3 ENE 7 9 4 5 1009.4 - 1.2
10/10:30pm 24.0 28.4 23.5 97 0.3 NNE 6 9 3 5 1009.6 - 1.2
10/10:00pm 23.7 27.3 23.0 96 0.5 N 9 13 5 7 1009.6 - 1.2
10/09:30pm 24.0 27.6 23.1 95 0.6 N 9 15 5 8 1009.7 - 1.2
10/09:00pm 24.2 28.5 23.3 95 0.6 N 6 11 3 6 1009.8 1007.7 1.2
10/08:30pm 24.2 27.9 23.2 94 0.7 NNE 9 11 5 6 1009.8 - 1.2
10/08:00pm 25.1 30.0 22.4 85 1.8 CALM 0 0 0 0 1009.7 - 0.8
10/07:30pm 25.4 28.6 21.7 80 2.5 SSW 7 13 4 7 1009.2 - 0.2
10/07:00pm 25.5 27.6 21.0 76 3.0 S 11 20 6 11 1008.4 - 0.2
10/06:30pm 27.0 27.5 20.8 69 4.1 SSW 19 28 10 15 1007.9 - 0.2
10/06:00pm 28.6 32.1 23.5 74 3.5 WSW 11 15 6 8 1007.2 1005.1 0.2
10/05:30pm 29.1 33.2 23.3 71 4.0 SW 7 9 4 5 1006.6 - 0.2
10/05:00pm 29.2 33.9 22.7 68 4.5 SW 2 7 1 4 1006.0 - 0.2
10/04:30pm 28.7 32.3 22.4 68 4.3 SW 7 11 4 6 1006.0 - 0.2
10/04:00pm 28.4 31.1 22.9 72 3.8 W 13 17 7 9 1006.2 - 0.2
10/03:30pm 29.1 33.1 22.1 66 4.8 SSE 4 7 2 4 1006.8 - 0.2
10/03:00pm 28.4 31.6 22.4 70 4.1 SE 9 17 5 9 1007.1 1005.0 0.2
10/02:30pm 28.7 30.2 22.0 67 4.6 SSE 17 28 9 15 1007.2 - 0.2
10/02:00pm 28.2 29.0 21.7 68 4.4 SE 20 35 11 19 1007.9 - 0.2
10/01:30pm 30.0 32.4 22.2 63 5.3 E 13 22 7 12 1008.0 - 0.2
10/01:00pm 31.4 34.1 22.1 57 6.4 NE 11 19 6 10 1008.5 - 0.2
10/12:30pm 31.1 33.6 21.0 55 6.8 ENE 9 15 5 8 1009.0 - 0.2
10/12:00pm 30.6 33.3 21.4 58 6.3 ENE 9 17 5 9 1009.3 1007.2 0.2
10/11:30am 29.8 33.4 22.3 64 5.1 NE 7 15 4 8 1009.6 - 0.2
10/11:00am 28.4 31.6 23.1 73 3.7 NNE 11 15 6 8 1010.0 - 0.2
10/10:30am 27.8 31.2 22.7 74 3.5 NNE 9 13 5 7 1010.3 - 0.2
10/10:00am 27.3 31.0 23.3 79 2.8 NE 9 13 5 7 1010.5 - 0.0
10/09:30am 27.1 31.3 23.1 79 2.8 ENE 6 11 3 6 1010.6 - 0.0
10/09:00am 27.3 32.4 23.3 79 2.8 ESE 2 6 1 3 1010.6 1008.5 3.0
10/08:57am 27.2 32.2 23.9 82 2.3 ESE 4 9 2 5 1010.6 - 3.0
10/08:30am 26.8 31.5 23.3 81 2.4 SE 4 9 2 5 1010.5 - 3.0
10/08:00am 25.1 30.5 23.3 90 1.2 CALM 0 0 0 0 1010.4 - 3.0
10/07:35am 24.8 29.8 23.2 91 1.1 W 2 6 1 3 1010.3 - 3.0
10/07:30am 24.8 29.5 23.4 92 1.0 W 4 7 2 4 1010.2 - 3.0
10/07:00am 24.3 30.0 23.8 97 0.3 CALM 0 0 0 0 1009.9 - 3.0
10/06:30am 24.2 28.5 23.7 97 0.3 W 7 9 4 5 1009.7 - 3.0
10/06:00am 24.3 29.2 23.6 96 0.5 WNW 4 7 2 4 1009.6 1007.5 3.0
10/05:30am 24.3 28.7 23.4 95 0.6 WNW 6 7 3 4 1009.1 - 3.0
10/05:00am 24.3 29.0 23.4 95 0.6 NNW 4 7 2 4 1008.6 - 3.0
10/04:30am 24.3 28.8 23.6 96 0.5 N 6 7 3 4 1008.6 - 3.0
10/04:00am 24.3 28.8 23.6 96 0.5 N 6 7 3 4 1008.6 - 3.0
10/03:52am 24.3 28.9 23.8 97 0.3 N 6 7 3 4 1008.6 - 3.0
10/03:30am 24.2 28.5 23.7 97 0.3 N 7 9 4 5 1008.5 - 3.0
10/03:06am 24.1 28.5 23.8 98 0.2 N 7 9 4 5 1008.7 - 3.0
10/03:00am 24.1 28.5 23.8 98 0.2 N 7 9 4 5 1008.7 1006.6 3.0
10/02:30am 24.1 28.0 23.6 97 0.3 N 9 13 5 7 1008.9 - 3.0
10/02:19am 24.2 28.2 23.7 97 0.3 N 9 15 5 8 1009.0 - 3.0
10/02:06am 24.2 27.8 23.7 97 0.3 N 11 19 6 10 1009.1 - 3.0
10/02:00am 24.2 27.8 23.7 97 0.3 N 11 19 6 10 1009.2 - 3.0
10/01:52am 24.3 27.9 23.8 97 0.3 NNE 11 15 6 8 1009.4 - 3.0
10/01:30am 24.6 28.3 23.9 96 0.5 NNE 11 17 6 9 1009.5 - 2.6
10/01:22am 24.7 28.5 24.0 96 0.5 NNE 11 17 6 9 1009.5 - 2.6
10/01:00am 24.7 27.1 23.7 94 0.7 NNE 17 20 9 11 1009.6 - 2.6
10/12:30am 25.3 28.1 23.7 91 1.1 NNE 15 20 8 11 1009.8 - 2.6
10/12:00am 25.1 28.2 23.5 91 1.1 NNE 13 15 7 8 1009.8 1007.7 2.6
 
Date/Time
EST
Temp
°C
App
Temp
°C
Dew
Point
Rel
Hum
%
Delta-T
°C
Wind Press
QNH
hPa
Press
MSL
hPa
Rain
since 9 am
mm
Dir
 
Spd
km/h
Gust
km/h
Spd
kts
Gust
kts
09/11:30pm 25.5 28.8 23.2 87 1.6 N 11 17 6 9 1010.3 - 2.6
09/11:00pm 25.6 29.9 23.6 89 1.4 N 7 11 4 6 1010.5 - 2.6
09/10:41pm 25.5 29.5 23.7 90 1.2 E 9 15 5 8 1010.6 - 2.6
09/10:30pm 25.3 27.7 23.7 91 1.1 NNE 17 28 9 15 1010.3 - 2.6
09/10:25pm 25.7 28.5 23.6 88 1.4 NNE 15 20 8 11 1010.0 - 2.4
09/10:00pm 26.5 31.8 24.3 88 1.5 NNW 4 11 2 6 1009.7 - 0.6
09/09:30pm 26.4 32.4 24.2 88 1.5 CALM 0 0 0 0 1009.4 - 0.6
09/09:00pm 26.3 31.3 23.8 86 1.7 W 4 7 2 4 1009.0 1006.9 0.6
09/08:30pm 26.1 30.2 24.0 88 1.5 SW 9 13 5 7 1008.9 - 0.6
09/08:00pm 26.1 32.0 24.1 89 1.4 CALM 0 0 0 0 1008.5 - 0.6
09/07:30pm 26.2 30.4 23.5 85 1.9 S 7 13 4 7 1008.2 - 0.6
09/07:00pm 26.4 29.6 22.3 78 2.8 SSE 9 13 5 7 1007.8 - 0.6
09/06:30pm 26.8 30.2 22.0 75 3.3 SE 7 11 4 6 1007.4 - 0.6
09/06:00pm 27.5 29.4 21.3 69 4.2 SE 13 17 7 9 1007.6 1005.4 0.6
09/05:30pm 26.7 27.3 21.0 71 3.8 SSE 19 28 10 15 1007.6 - 0.6
09/05:00pm 26.3 26.0 21.9 77 3.0 SSE 26 41 14 22 1007.7 - 0.6
09/04:52pm 27.2 26.0 22.2 74 3.4 SSE 32 41 17 22 1007.4 - 0.6
09/04:30pm 27.3 31.4 24.0 82 2.3 SSE 9 20 5 11 1007.6 - 0.6
09/04:00pm 27.0 32.3 24.3 85 1.9 NNE 4 17 2 9 1007.0 - 0.6
09/03:30pm 25.9 29.5 24.3 91 1.1 W 13 19 7 10 1006.7 - 0.6
09/03:00pm 26.0 30.1 23.9 88 1.5 WSW 9 15 5 8 1007.4 1005.3 0.2
09/02:30pm 26.2 28.5 24.1 88 1.5 W 19 28 10 15 1007.9 - 0.2
09/02:00pm 27.1 30.1 24.6 86 1.8 W 17 22 9 12 1008.3 - 0.2
09/01:30pm 27.6 31.7 24.0 81 2.5 NW 9 15 5 8 1008.7 - 0.0
09/01:00pm 30.7 32.5 22.6 62 5.6 ENE 17 22 9 12 1009.0 - 0.0
09/12:30pm 31.8 32.8 22.2 56 6.6 NNE 20 28 11 15 1009.4 - 0.0
09/12:00pm 33.5 37.9 23.5 55 7.0 E 6 15 3 8 1009.8 1007.7 0.0
09/11:30am 31.6 35.3 22.6 59 6.2 NE 7 11 4 6 1010.3 - 0.0
09/11:00am 31.2 34.7 22.2 58 6.2 NNW 7 11 4 6 1010.6 - 0.0
09/10:30am 32.2 36.7 23.7 61 6.0 W 6 9 3 5 1011.0 - 0.0
09/10:00am 31.2 34.1 22.5 60 6.0 NE 11 15 6 8 1011.1 - 0.0
09/09:30am 30.5 34.0 22.9 64 5.3 NNE 9 13 5 7 1011.2 - 0.0
09/09:00am 30.1 33.8 23.3 67 4.7 NE 9 13 5 7 1011.1 1008.9 0.0
09/08:30am 29.7 33.2 23.6 69 4.3 E 11 15 6 8 1010.7 - 0.0
09/08:00am 28.8 32.1 23.2 71 3.9 E 11 17 6 9 1010.6 - 0.0
09/07:30am 27.2 31.4 23.4 80 2.6 E 7 9 4 5 1010.5 - 0.0
09/07:00am 27.1 31.0 23.6 81 2.4 ESE 9 13 5 7 1010.4 - 0.0
09/06:30am 26.0 30.3 23.3 85 1.9 SE 6 7 3 4 1010.0 - 0.0
09/06:00am 26.4 30.6 23.5 84 2.0 E 7 9 4 5 1009.4 1007.3 0.0
09/05:30am 26.3 29.9 23.8 86 1.7 ENE 11 13 6 7 1008.9 - 0.0
09/05:00am 26.3 30.8 23.6 85 1.9 E 6 7 3 4 1009.1 - 0.0
09/04:30am 26.5 31.0 23.6 84 2.0 ESE 6 7 3 4 1009.2 - 0.0
09/04:00am 26.2 30.5 23.3 84 2.0 SE 6 7 3 4 1009.1 - 0.0
09/03:30am 26.1 31.4 23.0 83 2.1 CALM 0 0 0 0 1008.9 - 0.0
09/03:00am 26.4 31.0 23.1 82 2.3 N 4 6 2 3 1009.2 1007.1 0.0
09/02:30am 26.8 30.8 22.8 79 2.7 SE 6 9 3 5 1009.5 - 0.0
09/02:00am 27.2 31.6 22.8 77 3.0 ESE 4 7 2 4 1009.7 - 0.0
09/01:30am 27.3 30.7 22.7 76 3.2 NE 9 11 5 6 1009.9 - 0.0
09/01:00am 27.3 30.2 22.5 75 3.3 NNE 11 13 6 7 1010.0 - 0.0
09/12:30am 27.2 30.5 22.6 76 3.1 N 9 13 5 7 1010.3 - 0.0
09/12:00am 27.3 30.6 22.5 75 3.3 N 9 15 5 8 1010.4 1008.3 0.0
 
Date/Time
EST
Temp
°C
App
Temp
°C
Dew
Point
Rel
Hum
%
Delta-T
°C
Wind Press
QNH
hPa
Press
MSL
hPa
Rain
since 9 am
mm
Dir
 
Spd
km/h
Gust
km/h
Spd
kts
Gust
kts
08/11:30pm 27.3 30.2 22.5 75 3.3 N 11 15 6 8 1010.4 - 0.0
08/11:00pm 27.7 30.1 22.2 72 3.7 N 13 17 7 9 1010.4 - 0.0
08/10:30pm 27.6 31.6 22.1 72 3.7 N 4 9 2 5 1010.3 - 0.0
08/10:00pm 28.0 31.3 21.8 69 4.2 NE 7 11 4 6 1010.0 - 0.0
08/09:30pm 28.0 32.5 21.5 67 4.4 CALM 0 6 0 3 1009.7 - 0.0
08/09:00pm 28.2 31.2 22.0 69 4.2 E 9 15 5 8 1009.5 1007.4 0.0

Other Formats:

Comma delimited format used in spreadsheet applications
http://www.bom.gov.au/fwo/IDQ60801/IDQ60801.94274.axf

JavaScript Object Notation format (JSON) in row-major order
http://www.bom.gov.au/fwo/IDQ60801/IDQ60801.94274.json